Ashippun, Wisconsin
Current Conditions -  °F | °C
As of 7:35 AM on Friday 24 Oct 2014 (Local Time) from KRYV Reporting Station
Haze Haze  
Wind Chill: 47°   Ceiling: 300
Heat Index: 47°   Visibility: 0.75mi
Dew Point: 47°   Wind: 0mph
Humidity: 100%   Direction: NA
Pressure: 30.04"   Gusts: NA
Location:  43.21°N, 88.52°W
Report Text: KRYV 241235Z AUTO 00000KT 3/4SM BR OVC003 08/08 A3004 RMK AO2 T00840084
Loading
Personal Weather Stations






























Interactive Weather Map
Tropical Storm Tracking
New forecast layout! Learn more

10-Day Weather Forecast

Advertisements
Track Severe Weather on mobile